Time;durP1;ratioP1;P1;durP2;ratioP2;P2;SDS_P1;SDS_P2;PMS_P1;PMS_P2;Temp;Humidity;BMP_temperature;BMP_pressure;BME280_temperature;BME280_humidity;BME280_pressure;Samples;Min_cycle;Max_cycle;Signal;HPM_P1;HPM_P2
2024/01/13 00:01:07;;;;;;;105.43;82.53;;;;;;;;;;5082008;27;20412;-78
2024/01/13 00:03:34;;;;;;;98.72;76.53;;;;;;;;;;5098525;27;20038;-80
2024/01/13 00:05:59;;;;;;;86.18;68.35;;;;;;;;;;5079901;27;20073;-77
2024/01/13 00:08:25;;;;;;;93.93;73.15;;;;;;;;;;5081850;27;20419;-80
2024/01/13 00:10:50;;;;;;;81.97;64.55;;;;;;;;;;5098986;27;20939;-78
2024/01/13 00:13:16;;;;;;;123.40;100.45;;;;;;;;;;5082785;27;20390;-76
2024/01/13 00:15:41;;;;;;;108.45;86.55;;;;;;;;;;5101089;27;20027;-77
2024/01/13 00:18:06;;;;;;;106.47;82.63;;;;;;;;;;5099290;27;20027;-77
2024/01/13 00:20:33;;;;;;;113.25;92.45;;;;;;;;;;5097439;27;20140;-76
2024/01/13 00:22:59;;;;;;;101.30;81.07;;;;;;;;;;5085974;27;20038;-76
2024/01/13 00:25:25;;;;;;;99.32;82.57;;;;;;;;;;5098151;27;20019;-77
2024/01/13 00:27:50;;;;;;;102.20;85.25;;;;;;;;;;5102004;27;20030;-76
2024/01/13 00:30:15;;;;;;;124.32;100.18;;;;;;;;;;5102715;27;20035;-76
2024/01/13 00:32:41;;;;;;;106.30;79.97;;;;;;;;;;5098926;27;20046;-76
2024/01/13 00:35:07;;;;;;;97.88;74.75;;;;;;;;;;5098083;27;20111;-76
2024/01/13 00:37:32;;;;;;;91.18;71.70;;;;;;;;;;5101154;27;20033;-76
2024/01/13 00:39:57;;;;;;;91.72;69.32;;;;;;;;;;5080052;27;20049;-77
2024/01/13 00:42:23;;;;;;;87.00;67.68;;;;;;;;;;5101885;27;20023;-76
2024/01/13 00:44:48;;;;;;;89.05;70.32;;;;;;;;;;5082859;27;20046;-76
2024/01/13 00:47:13;;;;;;;104.75;78.93;;;;;;;;;;5083710;27;20031;-76
2024/01/13 00:49:39;;;;;;;96.93;73.10;;;;;;;;;;5102192;27;20086;-79
2024/01/13 00:52:04;;;;;;;100.05;75.90;;;;;;;;;;5100621;27;20324;-76
2024/01/13 00:54:30;;;;;;;89.97;69.55;;;;;;;;;;5098612;27;20034;-77
2024/01/13 00:56:55;;;;;;;86.82;65.75;;;;;;;;;;5096698;27;20445;-76
2024/01/13 00:59:20;;;;;;;83.07;65.28;;;;;;;;;;5099981;27;20054;-75
2024/01/13 01:01:46;;;;;;;88.60;71.07;;;;;;;;;;5081074;27;20035;-76
2024/01/13 01:04:11;;;;;;;84.45;66.07;;;;;;;;;;5079305;27;20020;-75
2024/01/13 01:06:37;;;;;;;89.32;68.63;;;;;;;;;;5080464;27;20023;-76
2024/01/13 01:09:02;;;;;;;79.32;64.57;;;;;;;;;;5095692;27;20039;-76
2024/01/13 01:11:27;;;;;;;81.40;63.47;;;;;;;;;;5096963;27;20530;-77
2024/01/13 01:13:53;;;;;;;85.72;62.75;;;;;;;;;;5098393;27;20102;-76
2024/01/13 01:16:18;;;;;;;98.50;77.75;;;;;;;;;;5104251;27;20027;-75
2024/01/13 01:18:44;;;;;;;111.43;85.53;;;;;;;;;;5120592;27;20102;-75
2024/01/13 01:21:09;;;;;;;105.50;82.38;;;;;;;;;;5112242;27;20020;-74
2024/01/13 01:23:35;;;;;;;97.05;75.53;;;;;;;;;;5082774;28;20024;-74
2024/01/13 01:26:00;;;;;;;99.85;84.13;;;;;;;;;;5092337;27;20373;-76
2024/01/13 01:28:25;;;;;;;94.75;81.45;;;;;;;;;;5099368;27;20067;-76
2024/01/13 01:30:51;;;;;;;136.20;109.30;;;;;;;;;;5115458;27;20035;-76
2024/01/13 01:33:16;;;;;;;237.05;196.00;;;;;;;;;;5118142;27;20043;-76
2024/01/13 01:35:41;;;;;;;150.70;120.55;;;;;;;;;;5115831;27;20175;-76
2024/01/13 01:38:07;;;;;;;129.90;105.57;;;;;;;;;;5109064;27;20097;-77
2024/01/13 01:40:33;;;;;;;106.50;84.25;;;;;;;;;;5101475;27;20032;-75
2024/01/13 01:42:58;;;;;;;94.35;75.25;;;;;;;;;;5114799;27;20038;-76
2024/01/13 01:45:23;;;;;;;88.70;69.28;;;;;;;;;;5104904;27;20023;-75
2024/01/13 01:47:51;;;;;;;86.18;65.95;;;;;;;;;;5115900;27;20053;-75
2024/01/13 01:50:16;;;;;;;88.50;67.50;;;;;;;;;;5099363;28;20404;-74
2024/01/13 01:52:42;;;;;;;87.72;69.75;;;;;;;;;;5095607;27;20047;-74
2024/01/13 01:55:08;;;;;;;84.13;65.70;;;;;;;;;;5117284;27;20015;-74
2024/01/13 01:57:35;;;;;;;85.32;69.13;;;;;;;;;;5101127;27;20443;-74
2024/01/13 02:00:01;;;;;;;111.82;79.25;;;;;;;;;;5116874;27;20166;-74
2024/01/13 02:02:26;;;;;;;122.57;86.75;;;;;;;;;;5111527;27;20496;-74
2024/01/13 02:04:52;;;;;;;168.77;112.80;;;;;;;;;;5104245;27;20398;-76
2024/01/13 02:07:18;;;;;;;745.17;470.95;;;;;;;;;;5080731;28;20022;-75
2024/01/13 02:09:43;;;;;;;571.80;352.98;;;;;;;;;;5076796;28;20139;-75
2024/01/13 02:12:09;;;;;;;421.77;240.57;;;;;;;;;;5099301;28;20027;-76
2024/01/13 02:14:34;;;;;;;580.33;388.10;;;;;;;;;;5096514;28;20028;-75
2024/01/13 02:16:59;;;;;;;697.28;487.15;;;;;;;;;;5097706;28;20689;-75
2024/01/13 02:19:30;;;;;;;644.00;481.55;;;;;;;;;;5098572;28;20096;-75
2024/01/13 02:21:55;;;;;;;349.75;241.38;;;;;;;;;;5090718;28;20031;-75
2024/01/13 02:24:20;;;;;;;146.82;112.80;;;;;;;;;;5106932;28;20027;-77
2024/01/13 02:26:46;;;;;;;115.53;93.38;;;;;;;;;;5096948;28;20059;-77
2024/01/13 02:29:11;;;;;;;112.80;86.32;;;;;;;;;;5102145;28;20065;-77
2024/01/13 02:31:36;;;;;;;91.50;68.72;;;;;;;;;;5109488;28;20464;-73
2024/01/13 02:34:02;;;;;;;83.53;66.05;;;;;;;;;;5084969;28;20023;-76
2024/01/13 02:36:27;;;;;;;84.68;65.40;;;;;;;;;;5104871;28;20453;-75
2024/01/13 02:38:52;;;;;;;80.20;63.85;;;;;;;;;;5117027;28;20673;-75
2024/01/13 02:41:18;;;;;;;82.18;61.05;;;;;;;;;;5104444;28;20035;-74
2024/01/13 02:43:43;;;;;;;77.07;60.10;;;;;;;;;;5100110;28;20030;-75
2024/01/13 02:46:09;;;;;;;76.47;60.00;;;;;;;;;;5081558;28;20607;-75
2024/01/13 02:48:38;;;;;;;152.20;114.45;;;;;;;;;;5116084;28;20027;-75
2024/01/13 02:51:05;;;;;;;163.80;121.28;;;;;;;;;;5106773;28;20023;-76
2024/01/13 02:53:30;;;;;;;131.95;101.05;;;;;;;;;;5089399;28;20490;-75
2024/01/13 02:55:55;;;;;;;108.95;84.15;;;;;;;;;;5117731;28;20027;-75
2024/01/13 02:58:21;;;;;;;94.38;72.55;;;;;;;;;;5116301;27;20353;-76
2024/01/13 03:00:46;;;;;;;92.93;73.50;;;;;;;;;;5119978;27;20058;-76
2024/01/13 03:03:11;;;;;;;85.93;67.53;;;;;;;;;;5120265;27;20023;-75
2024/01/13 03:05:36;;;;;;;91.35;72.10;;;;;;;;;;5115043;27;20020;-74
2024/01/13 03:08:02;;;;;;;111.93;86.55;;;;;;;;;;5112190;27;20043;-74
2024/01/13 03:10:28;;;;;;;126.60;105.65;;;;;;;;;;5096498;27;20051;-74
2024/01/13 03:12:53;;;;;;;98.57;75.97;;;;;;;;;;5117260;27;20076;-74
2024/01/13 03:15:19;;;;;;;84.30;67.22;;;;;;;;;;5121318;27;20034;-73
2024/01/13 03:17:44;;;;;;;75.68;61.13;;;;;;;;;;5099885;27;20027;-75
2024/01/13 03:20:10;;;;;;;75.57;61.17;;;;;;;;;;5118394;27;20054;-74
2024/01/13 03:22:35;;;;;;;70.40;55.78;;;;;;;;;;5096489;27;20422;-74
2024/01/13 03:25:00;;;;;;;71.00;56.15;;;;;;;;;;5084097;27;20023;-73
2024/01/13 03:27:26;;;;;;;69.97;55.70;;;;;;;;;;5121998;27;20023;-73
2024/01/13 03:29:51;;;;;;;69.90;56.13;;;;;;;;;;5120297;27;20031;-73
2024/01/13 03:32:16;;;;;;;71.93;56.53;;;;;;;;;;5121128;27;20457;-74
2024/01/13 03:34:42;;;;;;;143.07;109.28;;;;;;;;;;5102124;27;20069;-74
2024/01/13 03:37:07;;;;;;;137.57;105.95;;;;;;;;;;5121235;27;20024;-75
2024/01/13 03:39:32;;;;;;;121.22;90.30;;;;;;;;;;5118891;27;20031;-74
2024/01/13 03:41:58;;;;;;;114.78;88.47;;;;;;;;;;5118076;27;20108;-75
2024/01/13 03:44:23;;;;;;;114.72;91.78;;;;;;;;;;5121988;27;20039;-75
2024/01/13 03:46:49;;;;;;;99.50;76.95;;;;;;;;;;5095879;27;20218;-73
2024/01/13 03:49:15;;;;;;;96.15;76.97;;;;;;;;;;5108702;27;20030;-73
2024/01/13 03:51:40;;;;;;;99.95;80.40;;;;;;;;;;5095957;27;20023;-74
2024/01/13 03:54:06;;;;;;;89.60;69.93;;;;;;;;;;5118138;27;20514;-73
2024/01/13 03:56:31;;;;;;;103.28;81.97;;;;;;;;;;5118336;27;20080;-75
2024/01/13 03:58:56;;;;;;;151.93;117.00;;;;;;;;;;5102448;27;20046;-74
2024/01/13 04:01:22;;;;;;;167.60;132.60;;;;;;;;;;5106876;27;20056;-74
2024/01/13 04:03:47;;;;;;;190.57;145.55;;;;;;;;;;5127494;27;20026;-76
2024/01/13 04:06:12;;;;;;;137.05;106.93;;;;;;;;;;5109722;27;20426;-77
2024/01/13 04:08:38;;;;;;;138.88;105.15;;;;;;;;;;5101474;27;20407;-75
2024/01/13 04:11:08;;;;;;;124.93;96.43;;;;;;;;;;5101078;27;20058;-76
2024/01/13 04:13:33;;;;;;;110.10;90.13;;;;;;;;;;5113506;27;20143;-76
2024/01/13 04:15:58;;;;;;;108.78;82.82;;;;;;;;;;5109232;27;20473;-74
2024/01/13 04:18:24;;;;;;;91.07;71.05;;;;;;;;;;5102532;27;20037;-73
2024/01/13 04:20:49;;;;;;;96.47;77.00;;;;;;;;;;5117906;27;20031;-75
2024/01/13 04:23:14;;;;;;;91.30;73.53;;;;;;;;;;5115944;27;20027;-75
2024/01/13 04:25:40;;;;;;;83.03;66.78;;;;;;;;;;5117630;27;20086;-75
2024/01/13 04:28:05;;;;;;;92.78;72.18;;;;;;;;;;5099642;27;20038;-77
2024/01/13 04:30:31;;;;;;;88.35;69.97;;;;;;;;;;5095525;27;20035;-75
2024/01/13 04:32:57;;;;;;;81.47;67.60;;;;;;;;;;5103086;27;20034;-76
2024/01/13 04:35:22;;;;;;;85.55;65.13;;;;;;;;;;5117490;27;20027;-75
2024/01/13 04:37:47;;;;;;;75.90;61.65;;;;;;;;;;5118997;27;20020;-74
2024/01/13 04:40:13;;;;;;;79.82;65.35;;;;;;;;;;5115559;27;20041;-75
2024/01/13 04:42:38;;;;;;;81.72;66.75;;;;;;;;;;5095249;27;20038;-76
2024/01/13 04:45:04;;;;;;;81.85;67.10;;;;;;;;;;5099511;27;20020;-74
2024/01/13 04:47:29;;;;;;;104.07;81.18;;;;;;;;;;5106768;27;20027;-78
2024/01/13 04:49:55;;;;;;;108.45;90.18;;;;;;;;;;5117660;27;20033;-76
2024/01/13 04:52:20;;;;;;;110.00;88.82;;;;;;;;;;5117464;27;20027;-73
2024/01/13 04:54:45;;;;;;;109.68;90.97;;;;;;;;;;5115401;27;20077;-76
2024/01/13 04:57:11;;;;;;;108.15;91.65;;;;;;;;;;5097894;27;20034;-76
2024/01/13 04:59:36;;;;;;;104.93;84.57;;;;;;;;;;5116660;27;20023;-76
2024/01/13 05:02:01;;;;;;;134.43;104.90;;;;;;;;;;5103097;27;20345;-76
2024/01/13 05:04:27;;;;;;;146.65;103.47;;;;;;;;;;5088130;27;20369;-76
2024/01/13 05:06:52;;;;;;;128.50;100.40;;;;;;;;;;5087810;27;20038;-76
2024/01/13 05:09:18;;;;;;;126.68;95.03;;;;;;;;;;5104624;27;20034;-77
2024/01/13 05:11:43;;;;;;;84.80;68.30;;;;;;;;;;5101709;27;20016;-76
2024/01/13 05:14:09;;;;;;;96.57;80.53;;;;;;;;;;5117198;27;20110;-76
2024/01/13 05:16:34;;;;;;;90.70;74.07;;;;;;;;;;5116427;27;20461;-76
2024/01/13 05:18:59;;;;;;;84.38;69.28;;;;;;;;;;5102541;27;20032;-76
2024/01/13 05:21:25;;;;;;;75.78;60.28;;;;;;;;;;5119354;27;20031;-76
2024/01/13 05:23:50;;;;;;;108.65;80.15;;;;;;;;;;5093541;28;21075;-76
2024/01/13 05:26:16;;;;;;;116.57;88.30;;;;;;;;;;5118535;27;20027;-76
2024/01/13 05:28:41;;;;;;;142.70;101.40;;;;;;;;;;5116483;27;20071;-77
2024/01/13 05:31:06;;;;;;;556.53;449.45;;;;;;;;;;5117902;27;20023;-77
2024/01/13 05:33:32;;;;;;;410.38;309.08;;;;;;;;;;5105214;27;20065;-77
2024/01/13 05:35:57;;;;;;;393.67;286.23;;;;;;;;;;5110870;27;20024;-77
2024/01/13 05:38:23;;;;;;;254.82;194.02;;;;;;;;;;5119516;27;20023;-77
2024/01/13 05:40:48;;;;;;;132.70;101.65;;;;;;;;;;5119710;27;20031;-76
2024/01/13 05:43:14;;;;;;;113.18;88.63;;;;;;;;;;5109900;27;20039;-78
2024/01/13 05:45:39;;;;;;;114.75;92.30;;;;;;;;;;5092905;28;20030;-77
2024/01/13 05:48:04;;;;;;;117.32;93.97;;;;;;;;;;5098500;28;20035;-77
2024/01/13 05:50:30;;;;;;;114.35;91.78;;;;;;;;;;5096616;27;20614;-77
2024/01/13 05:52:56;;;;;;;165.32;121.05;;;;;;;;;;5118885;27;20051;-76
2024/01/13 05:55:22;;;;;;;146.73;111.90;;;;;;;;;;5113619;27;20115;-76
2024/01/13 05:57:47;;;;;;;130.68;97.32;;;;;;;;;;5099445;27;20075;-77
2024/01/13 06:00:13;;;;;;;289.38;194.10;;;;;;;;;;5112411;27;20487;-76
2024/01/13 06:02:39;;;;;;;161.55;114.90;;;;;;;;;;5099165;27;20045;-74
2024/01/13 06:05:05;;;;;;;141.50;100.82;;;;;;;;;;5118885;27;20023;-76
2024/01/13 06:07:31;;;;;;;122.35;94.82;;;;;;;;;;5114015;27;20126;-77
2024/01/13 06:09:56;;;;;;;148.93;115.75;;;;;;;;;;5099574;28;20105;-77
2024/01/13 06:12:23;;;;;;;166.13;137.90;;;;;;;;;;5084162;28;20539;-76
2024/01/13 06:14:49;;;;;;;113.95;97.18;;;;;;;;;;5115467;28;20035;-74
2024/01/13 06:17:14;;;;;;;127.93;107.90;;;;;;;;;;5092044;28;20059;-77
2024/01/13 06:19:39;;;;;;;138.45;115.93;;;;;;;;;;5119073;28;20092;-77
2024/01/13 06:22:05;;;;;;;145.80;125.72;;;;;;;;;;5114169;28;20027;-77
2024/01/13 06:24:30;;;;;;;157.23;135.52;;;;;;;;;;5113986;28;20079;-77
2024/01/13 06:26:55;;;;;;;181.43;154.00;;;;;;;;;;5112786;28;20023;-75
2024/01/13 06:29:21;;;;;;;240.25;195.43;;;;;;;;;;5118452;28;20039;-78
2024/01/13 06:31:46;;;;;;;177.30;143.32;;;;;;;;;;5109173;27;20457;-77
2024/01/13 06:34:11;;;;;;;312.38;227.90;;;;;;;;;;5111039;27;20023;-74
2024/01/13 06:36:37;;;;;;;259.02;193.68;;;;;;;;;;5122921;27;20019;-76
2024/01/13 06:39:02;;;;;;;265.30;211.10;;;;;;;;;;5091521;27;20026;-74
2024/01/13 06:41:27;;;;;;;358.00;287.77;;;;;;;;;;5092336;27;20451;-74
2024/01/13 06:43:53;;;;;;;143.02;115.15;;;;;;;;;;5089504;27;20479;-76
2024/01/13 06:46:18;;;;;;;96.53;80.47;;;;;;;;;;5097762;27;20046;-76
2024/01/13 06:48:45;;;;;;;89.93;75.15;;;;;;;;;;5089854;27;20455;-74
2024/01/13 06:51:10;;;;;;;137.20;119.72;;;;;;;;;;5121358;27;20026;-75
2024/01/13 06:53:35;;;;;;;108.57;92.07;;;;;;;;;;5102418;27;20454;-76
2024/01/13 06:56:01;;;;;;;101.35;84.72;;;;;;;;;;5103917;27;20035;-76
2024/01/13 06:58:26;;;;;;;90.85;77.45;;;;;;;;;;5088530;27;20032;-76
2024/01/13 07:00:52;;;;;;;123.47;99.85;;;;;;;;;;5102903;27;20174;-75
2024/01/13 07:03:17;;;;;;;217.57;165.80;;;;;;;;;;5105819;27;20027;-76
2024/01/13 07:05:42;;;;;;;152.23;125.93;;;;;;;;;;5121965;27;20019;-76
2024/01/13 07:08:08;;;;;;;180.75;154.85;;;;;;;;;;5105686;27;20053;-76
2024/01/13 07:10:34;;;;;;;216.88;176.43;;;;;;;;;;5092946;27;20389;-77
2024/01/13 07:13:00;;;;;;;375.98;299.90;;;;;;;;;;5115521;27;20027;-77
2024/01/13 07:15:25;;;;;;;278.17;232.35;;;;;;;;;;5108873;27;20465;-77
2024/01/13 07:17:51;;;;;;;248.05;211.52;;;;;;;;;;5103553;27;20060;-77
2024/01/13 07:20:17;;;;;;;173.48;145.43;;;;;;;;;;5119913;27;20058;-77
2024/01/13 07:22:42;;;;;;;158.63;132.65;;;;;;;;;;5115121;27;20373;-77
2024/01/13 07:25:08;;;;;;;157.38;135.02;;;;;;;;;;5107944;27;20023;-77
2024/01/13 07:27:33;;;;;;;225.80;193.55;;;;;;;;;;5085161;27;20027;-77
2024/01/13 07:29:59;;;;;;;215.50;185.55;;;;;;;;;;5084665;27;20081;-77
2024/01/13 07:32:24;;;;;;;142.35;121.78;;;;;;;;;;5099741;27;20088;-77
2024/01/13 07:34:49;;;;;;;143.05;127.30;;;;;;;;;;5079259;27;20020;-77
2024/01/13 07:37:15;;;;;;;151.30;129.48;;;;;;;;;;5104229;27;20058;-77
2024/01/13 07:39:40;;;;;;;138.43;115.45;;;;;;;;;;5085778;27;20475;-76
2024/01/13 07:42:06;;;;;;;101.95;88.72;;;;;;;;;;5106997;27;20027;-77
2024/01/13 07:44:31;;;;;;;154.50;100.50;;;;;;;;;;5086806;27;20034;-77
2024/01/13 07:47:01;;;;;;;126.22;89.88;;;;;;;;;;5102235;27;20027;-77
2024/01/13 07:49:27;;;;;;;302.73;187.25;;;;;;;;;;5107207;27;20042;-76
2024/01/13 07:51:53;;;;;;;218.68;137.60;;;;;;;;;;5107013;27;20039;-76
2024/01/13 07:54:20;;;;;;;174.23;124.13;;;;;;;;;;5094161;27;20047;-77
2024/01/13 07:56:45;;;;;;;191.50;136.10;;;;;;;;;;5106049;27;20061;-76
2024/01/13 07:59:11;;;;;;;99.93;84.43;;;;;;;;;;5098780;27;20049;-77
2024/01/13 08:01:37;;;;;;;102.07;87.32;;;;;;;;;;5080802;27;21078;-76
2024/01/13 08:04:02;;;;;;;77.88;62.10;;;;;;;;;;5080974;27;20084;-77
2024/01/13 08:06:29;;;;;;;119.93;99.53;;;;;;;;;;5101712;27;20023;-77
2024/01/13 08:08:56;;;;;;;114.22;93.38;;;;;;;;;;5083011;27;20031;-77
2024/01/13 08:11:21;;;;;;;89.15;78.45;;;;;;;;;;5100602;27;20047;-77
2024/01/13 08:13:47;;;;;;;79.53;70.70;;;;;;;;;;5096744;27;20353;-77
2024/01/13 08:16:12;;;;;;;84.40;67.57;;;;;;;;;;5099235;27;20530;-76
2024/01/13 08:18:38;;;;;;;96.90;82.30;;;;;;;;;;5102613;27;20030;-76
2024/01/13 08:21:03;;;;;;;92.70;70.13;;;;;;;;;;5085163;27;20426;-76
2024/01/13 08:23:28;;;;;;;91.28;74.47;;;;;;;;;;5100263;27;20037;-76
2024/01/13 08:25:54;;;;;;;84.47;71.63;;;;;;;;;;5095496;27;20051;-76
2024/01/13 08:28:19;;;;;;;90.68;79.80;;;;;;;;;;5098395;27;21000;-77
2024/01/13 08:30:45;;;;;;;166.27;115.75;;;;;;;;;;5087905;27;20213;-77
2024/01/13 08:33:11;;;;;;;156.20;99.32;;;;;;;;;;5097346;27;20053;-77
2024/01/13 08:35:36;;;;;;;101.40;74.65;;;;;;;;;;5086632;27;20036;-77
2024/01/13 08:38:02;;;;;;;105.85;85.57;;;;;;;;;;5080196;27;20362;-76
2024/01/13 08:40:27;;;;;;;81.78;71.32;;;;;;;;;;5101199;27;20031;-76
2024/01/13 08:42:52;;;;;;;73.47;63.45;;;;;;;;;;5079806;27;20426;-76
2024/01/13 08:45:23;;;;;;;77.15;67.45;;;;;;;;;;5086894;27;20100;-76
2024/01/13 08:47:48;;;;;;;71.13;58.00;;;;;;;;;;5082196;27;20043;-76
2024/01/13 08:50:14;;;;;;;58.13;49.17;;;;;;;;;;5095877;27;20479;-76
2024/01/13 08:52:40;;;;;;;64.53;54.55;;;;;;;;;;5076095;27;20015;-76
2024/01/13 08:55:05;;;;;;;73.43;59.60;;;;;;;;;;5084000;28;20107;-76
2024/01/13 08:57:31;;;;;;;83.72;62.90;;;;;;;;;;5077987;27;20015;-76
2024/01/13 08:59:56;;;;;;;76.30;64.43;;;;;;;;;;5079201;27;20437;-83
2024/01/13 09:02:22;;;;;;;66.25;56.58;;;;;;;;;;5096766;27;20027;-76
2024/01/13 09:04:47;;;;;;;63.25;51.90;;;;;;;;;;5079102;27;20501;-76
2024/01/13 09:07:14;;;;;;;60.72;51.00;;;;;;;;;;5096764;27;20096;-79
2024/01/13 09:09:39;;;;;;;71.63;59.33;;;;;;;;;;5099604;27;20048;-76
2024/01/13 09:12:04;;;;;;;59.47;46.47;;;;;;;;;;5099435;27;20377;-78
2024/01/13 09:14:30;;;;;;;56.33;46.97;;;;;;;;;;5080899;27;20031;-78
2024/01/13 09:16:55;;;;;;;68.03;59.38;;;;;;;;;;5085339;28;20353;-78
2024/01/13 09:19:20;;;;;;;65.30;55.33;;;;;;;;;;5099198;27;20035;-77
2024/01/13 09:21:46;;;;;;;62.83;52.58;;;;;;;;;;5096732;27;20037;-78
2024/01/13 09:24:11;;;;;;;61.10;50.30;;;;;;;;;;5097572;27;23869;-76
2024/01/13 09:26:40;;;;;;;66.38;54.85;;;;;;;;;;5098233;27;20092;-77
2024/01/13 09:29:06;;;;;;;70.80;60.10;;;;;;;;;;5099412;27;20026;-77
2024/01/13 09:31:31;;;;;;;61.53;51.20;;;;;;;;;;5077412;27;20026;-77
2024/01/13 09:33:57;;;;;;;73.55;59.47;;;;;;;;;;5096613;27;20014;-80
2024/01/13 09:36:22;;;;;;;69.43;55.78;;;;;;;;;;5077575;27;20106;-80
2024/01/13 09:38:47;;;;;;;68.28;57.13;;;;;;;;;;5098476;27;20104;-76
2024/01/13 09:41:13;;;;;;;58.90;48.42;;;;;;;;;;5097811;27;20053;-77
2024/01/13 09:43:53;;;;;;;65.00;54.60;;;;;;;;;;5099278;27;20042;-77
2024/01/13 09:46:19;;;;;;;81.32;72.60;;;;;;;;;;5082336;28;20357;-77
2024/01/13 09:48:45;;;;;;;112.95;100.47;;;;;;;;;;5100201;27;20038;-77
2024/01/13 09:51:11;;;;;;;67.15;58.33;;;;;;;;;;5097354;27;20027;-77
2024/01/13 09:53:39;;;;;;;85.53;73.68;;;;;;;;;;5099167;27;20027;-79
2024/01/13 09:56:07;;;;;;;84.30;74.13;;;;;;;;;;5097572;27;20023;-78
2024/01/13 09:58:33;;;;;;;74.80;64.30;;;;;;;;;;5102672;27;20103;-78
2024/01/13 10:00:59;;;;;;;74.35;64.50;;;;;;;;;;5111488;27;20073;-79
2024/01/13 10:03:25;;;;;;;73.30;61.95;;;;;;;;;;5118651;27;20019;-78
2024/01/13 10:05:50;;;;;;;71.93;62.15;;;;;;;;;;5118370;27;20102;-76
2024/01/13 10:08:19;;;;;;;52.55;44.33;;;;;;;;;;5108280;27;20398;-78
2024/01/13 10:10:45;;;;;;;51.75;43.80;;;;;;;;;;5101847;27;20366;-79
2024/01/13 10:13:10;;;;;;;39.58;35.28;;;;;;;;;;5102427;28;20028;-77
2024/01/13 10:15:35;;;;;;;41.88;34.38;;;;;;;;;;5117471;28;20438;-79
2024/01/13 10:18:01;;;;;;;51.47;39.78;;;;;;;;;;5092017;28;20154;-78
2024/01/13 10:20:26;;;;;;;51.35;42.33;;;;;;;;;;5081446;28;20035;-79
2024/01/13 10:22:51;;;;;;;66.22;51.20;;;;;;;;;;5092478;28;20354;-78
2024/01/13 10:25:17;;;;;;;66.22;56.38;;;;;;;;;;5107853;28;20031;-77
2024/01/13 10:27:46;;;;;;;68.32;60.88;;;;;;;;;;5097852;28;20062;-77
2024/01/13 10:30:13;;;;;;;82.60;68.57;;;;;;;;;;5096411;28;20023;-77
2024/01/13 10:32:39;;;;;;;62.00;53.45;;;;;;;;;;5097338;28;20050;-77
2024/01/13 10:35:05;;;;;;;43.45;36.35;;;;;;;;;;5103623;28;20027;-76
2024/01/13 10:37:31;;;;;;;37.00;31.40;;;;;;;;;;5098591;28;20080;-78
2024/01/13 10:39:56;;;;;;;40.42;34.25;;;;;;;;;;5106731;28;20035;-79
2024/01/13 10:42:25;;;;;;;32.72;26.83;;;;;;;;;;5094045;28;20365;-76
2024/01/13 10:44:55;;;;;;;47.00;39.67;;;;;;;;;;5092273;28;20442;-78
2024/01/13 10:47:24;;;;;;;43.58;37.50;;;;;;;;;;5098566;28;20446;-79
2024/01/13 10:49:50;;;;;;;33.58;29.13;;;;;;;;;;5090010;28;20069;-77
2024/01/13 10:52:18;;;;;;;40.13;33.42;;;;;;;;;;5097689;28;20059;-77
2024/01/13 10:54:45;;;;;;;43.33;37.80;;;;;;;;;;5095101;28;20024;-77
2024/01/13 10:57:12;;;;;;;60.55;50.10;;;;;;;;;;5095620;28;20023;-75
2024/01/13 10:59:39;;;;;;;54.38;46.80;;;;;;;;;;5095621;28;20033;-76
2024/01/13 11:02:06;;;;;;;38.95;33.45;;;;;;;;;;5098278;28;20088;-78
2024/01/13 11:04:31;;;;;;;54.95;46.50;;;;;;;;;;5098300;28;20361;-79
2024/01/13 11:06:56;;;;;;;52.78;46.95;;;;;;;;;;5096822;28;20027;-77
2024/01/13 11:09:24;;;;;;;50.53;44.83;;;;;;;;;;5098523;28;20092;-77
2024/01/13 11:12:07;;;;;;;56.08;50.10;;;;;;;;;;5108936;28;20124;-77
2024/01/13 11:14:36;;;;;;;36.72;32.65;;;;;;;;;;5093500;28;20040;-76
2024/01/13 11:17:02;;;;;;;38.80;34.65;;;;;;;;;;5094841;28;20056;-78
2024/01/13 11:19:27;;;;;;;41.25;36.38;;;;;;;;;;5109245;27;20122;-81
2024/01/13 11:21:52;;;;;;;45.97;40.10;;;;;;;;;;5110884;27;20031;-79
2024/01/13 11:24:19;;;;;;;34.92;31.20;;;;;;;;;;5103926;27;20031;-78
2024/01/13 11:26:47;;;;;;;38.95;34.22;;;;;;;;;;5103151;27;20103;-80
2024/01/13 11:29:16;;;;;;;35.97;29.52;;;;;;;;;;5114094;27;20422;-78
2024/01/13 11:31:42;;;;;;;45.50;40.50;;;;;;;;;;5100956;27;20051;-78
2024/01/13 11:34:09;;;;;;;30.25;25.40;;;;;;;;;;5115634;27;20149;-77
2024/01/13 11:36:38;;;;;;;32.00;26.95;;;;;;;;;;5100861;27;20031;-81
2024/01/13 11:39:04;;;;;;;45.95;38.20;;;;;;;;;;5112053;27;20349;-78
2024/01/13 11:41:59;;;;;;;30.52;26.30;;;;;;;;;;5113730;27;20115;-78
2024/01/13 11:44:26;;;;;;;29.10;25.90;;;;;;;;;;5037364;28;20110;-76
2024/01/13 11:47:01;;;;;;;27.70;24.70;;;;;;;;;;5053705;28;20414;-75
2024/01/13 11:49:31;;;;;;;30.08;26.85;;;;;;;;;;5041270;28;20164;-77
2024/01/13 11:51:59;;;;;;;26.33;23.52;;;;;;;;;;5034450;28;20021;-77
2024/01/13 11:54:26;;;;;;;29.33;25.58;;;;;;;;;;5016827;28;20033;-78
2024/01/13 11:56:51;;;;;;;36.92;33.10;;;;;;;;;;5035410;28;20486;-76
2024/01/13 11:59:17;;;;;;;44.03;37.45;;;;;;;;;;5038691;28;20024;-75
2024/01/13 12:01:43;;;;;;;35.85;29.85;;;;;;;;;;5032666;28;20414;-77
2024/01/13 12:04:09;;;;;;;57.88;49.35;;;;;;;;;;5035107;28;21169;-76
2024/01/13 12:06:34;;;;;;;59.58;50.28;;;;;;;;;;5020741;28;20025;-78
2024/01/13 12:09:00;;;;;;;42.08;37.67;;;;;;;;;;5038857;28;20508;-78
2024/01/13 12:11:25;;;;;;;33.05;29.15;;;;;;;;;;5019643;28;20049;-78
2024/01/13 12:13:51;;;;;;;23.95;21.45;;;;;;;;;;5007113;28;20029;-79
2024/01/13 12:16:16;;;;;;;27.27;24.35;;;;;;;;;;5017452;28;20114;-77
2024/01/13 12:18:45;;;;;;;31.42;28.10;;;;;;;;;;5018569;28;20037;-76
2024/01/13 12:21:12;;;;;;;34.30;30.70;;;;;;;;;;5056549;28;20060;-75
2024/01/13 12:23:38;;;;;;;23.50;21.00;;;;;;;;;;5071627;28;20667;-74
2024/01/13 12:26:03;;;;;;;29.02;24.98;;;;;;;;;;5072031;28;20570;-78
2024/01/13 12:28:28;;;;;;;29.75;26.67;;;;;;;;;;5052339;28;20046;-74
2024/01/13 12:30:54;;;;;;;29.15;26.20;;;;;;;;;;5069460;28;20457;-75
2024/01/13 12:33:19;;;;;;;40.28;35.92;;;;;;;;;;5059643;28;20036;-76
2024/01/13 12:35:45;;;;;;;31.77;28.40;;;;;;;;;;5059588;28;20020;-75
2024/01/13 12:38:10;;;;;;;33.13;29.58;;;;;;;;;;5052579;28;20016;-73
2024/01/13 12:40:36;;;;;;;43.72;39.10;;;;;;;;;;5066450;28;20038;-73
2024/01/13 12:43:01;;;;;;;40.78;36.08;;;;;;;;;;5070418;28;20016;-73
2024/01/13 12:45:27;;;;;;;42.70;36.70;;;;;;;;;;5072597;28;20439;-75
2024/01/13 12:47:56;;;;;;;50.10;44.95;;;;;;;;;;5067033;28;20082;-76
2024/01/13 12:50:22;;;;;;;53.75;47.75;;;;;;;;;;5071988;28;20028;-76
2024/01/13 12:52:47;;;;;;;52.33;43.60;;;;;;;;;;5070557;28;20024;-74
2024/01/13 12:55:13;;;;;;;150.82;116.32;;;;;;;;;;5070426;28;20035;-75
2024/01/13 12:57:39;;;;;;;63.20;53.28;;;;;;;;;;5068504;28;20108;-75
2024/01/13 13:00:07;;;;;;;90.70;74.90;;;;;;;;;;5069605;28;20039;-74
2024/01/13 13:02:37;;;;;;;63.65;55.53;;;;;;;;;;5064829;28;21139;-74
2024/01/13 13:05:02;;;;;;;67.50;59.47;;;;;;;;;;5067299;28;20027;-75
2024/01/13 13:07:28;;;;;;;48.83;40.92;;;;;;;;;;5068034;28;20028;-76
2024/01/13 13:09:55;;;;;;;56.58;47.70;;;;;;;;;;5078928;27;20634;-74
2024/01/13 13:12:21;;;;;;;50.35;44.85;;;;;;;;;;5086188;27;20030;-72
2024/01/13 13:14:48;;;;;;;102.57;86.78;;;;;;;;;;5099819;27;20027;-74
2024/01/13 13:17:13;;;;;;;91.40;80.00;;;;;;;;;;5076977;27;20073;-74
2024/01/13 13:19:39;;;;;;;61.42;53.97;;;;;;;;;;5112536;27;20502;-75
2024/01/13 13:22:04;;;;;;;50.97;41.15;;;;;;;;;;5091730;27;20050;-73
2024/01/13 13:24:31;;;;;;;45.72;40.33;;;;;;;;;;5099198;27;20042;-74
2024/01/13 13:26:56;;;;;;;36.90;31.77;;;;;;;;;;5100351;27;20041;-73
2024/01/13 13:29:22;;;;;;;26.60;23.67;;;;;;;;;;5080278;27;20099;-77
2024/01/13 13:31:47;;;;;;;34.40;30.65;;;;;;;;;;5099017;27;20019;-74
2024/01/13 13:34:13;;;;;;;47.90;42.83;;;;;;;;;;5099728;27;20366;-75
2024/01/13 13:36:38;;;;;;;34.13;29.00;;;;;;;;;;5081272;27;21218;-73
2024/01/13 13:39:05;;;;;;;47.28;37.30;;;;;;;;;;5078660;27;20023;-75
2024/01/13 13:41:31;;;;;;;188.27;107.95;;;;;;;;;;5076778;28;20369;-75
2024/01/13 13:43:56;;;;;;;78.80;55.60;;;;;;;;;;5095737;27;20042;-75
2024/01/13 13:46:21;;;;;;;39.10;31.75;;;;;;;;;;5097309;27;20027;-74
2024/01/13 13:48:46;;;;;;;48.53;39.95;;;;;;;;;;5097447;27;20031;-74
2024/01/13 13:51:12;;;;;;;47.65;40.40;;;;;;;;;;5100212;27;20031;-74
2024/01/13 13:53:37;;;;;;;44.63;34.47;;;;;;;;;;5107169;27;20456;-73
2024/01/13 13:56:03;;;;;;;32.05;26.50;;;;;;;;;;5095341;27;20035;-73
2024/01/13 13:58:28;;;;;;;32.72;26.13;;;;;;;;;;5106487;27;20023;-76
2024/01/13 14:00:54;;;;;;;45.60;38.40;;;;;;;;;;5099799;27;20028;-75